Startpagina
METAR-TAF:

METAR-TAF

Vliegvelden :

Hévíz-Balaton Airport

Hévíz, Hongarije

breedte: 46-41-11N, lengte: 017-09-33E, hoogte: 124 m

Actueel weer

Dit bericht is 49 minuten geleden gemaakt, om 04:15 UTC
Wind 2 kt uit het westen
Temperatuur 10°C
Vochtigheid 87%
Druk 1010 hPa
Zicht 10 km of meer
lichte regen

METAR: LHSM 240415Z 26002KT 9999 -RA NSC 10/08 Q1010

Tijdstip: 07:04 (05:04 UTC)

Verwachting

Dit bericht is 17 uur en het 49 minuten geleden gemaakt, om 11:15 UTC
Verwachting geldig van 23 om 12 UTC tot 23 om 21 UTC
Wind 7 kt uit het westzuidwesten
Zicht 10 km of meer
Verspreide wolken op 3300 ft
Gebroken wolken op 20000 ft
Wijzigt naar
van 23 om 13 UTC tot 23 om 15 UTC
Zicht 10 km of meer
geen wolken onder 1500 m en geen cumulonimbus
Wijzigt naar
van 23 om 18 UTC tot 23 om 21 UTC
Wind 10 kt uit het westnoordwesten
Zicht 10 km of meer
Gebroken wolken op 4500 ft

TAF: LHSM 231115Z 2312/2321 24007KT 9999 SCT033 BKN200 BECMG 2313/2315 CAVOK BECMG 2318/2321 29010KT 9999 BKN045

Waarnemingen en weersverwachtingen van meer dan 4000 vliegvelden (METAR en TAF).

De beschikbare stations zijn de gele en rode punten op de kaart.

Ga met uw muis naar het station om de naam te zien.

Klik dan om waarnemingen en weersverwachtingen te zien.

kaart wijzigen: klik op de groene knoppen met een zwart kruis om in te zoomen, op de groene knop met een streepje om uit te zoomen of op de groene pijlen voor aangrenzende kaarten.


METAR-TAF: